createdAt,value
2018-06-12T00:02:19.249Z,99.90
2018-06-12T00:04:47.414Z,99.90
2018-06-12T00:07:15.571Z,99.90
2018-06-12T00:09:43.833Z,99.90
2018-06-12T00:12:11.985Z,99.90
2018-06-12T00:14:40.213Z,99.90
2018-06-12T00:17:08.499Z,99.90
2018-06-12T00:19:36.777Z,99.90
2018-06-12T00:22:04.997Z,99.90
2018-06-12T00:24:33.216Z,99.90
2018-06-12T00:27:01.465Z,99.90
2018-06-12T00:29:29.634Z,99.90
2018-06-12T00:31:57.789Z,99.90
2018-06-12T00:34:26.188Z,99.90
2018-06-12T00:36:54.391Z,99.90
2018-06-12T00:39:22.567Z,99.90
2018-06-12T00:41:50.828Z,99.90
2018-06-12T00:44:19.004Z,99.90
2018-06-12T00:46:47.232Z,99.90
2018-06-12T00:49:15.486Z,99.90
2018-06-12T00:51:43.665Z,99.90
2018-06-12T00:54:11.880Z,99.90
2018-06-12T00:56:51.388Z,99.90
2018-06-12T00:59:19.622Z,99.90
2018-06-12T01:01:47.782Z,99.90
2018-06-12T01:04:16.023Z,99.90
2018-06-12T01:06:44.181Z,99.90
2018-06-12T01:09:12.356Z,99.70
2018-06-12T01:11:40.581Z,99.70
2018-06-12T01:14:08.877Z,99.80
2018-06-12T01:16:37.138Z,99.70
2018-06-12T01:19:05.349Z,99.60
2018-06-12T01:21:33.525Z,99.80
2018-06-12T01:24:04.590Z,99.70
2018-06-12T01:26:32.788Z,99.70
2018-06-12T01:29:00.978Z,99.90
2018-06-12T01:31:30.051Z,99.70
2018-06-12T01:33:58.230Z,99.70
2018-06-12T01:38:56.792Z,99.90
2018-06-12T01:41:24.951Z,99.80
2018-06-12T01:43:56.205Z,99.90
2018-06-12T01:46:24.823Z,99.90
2018-06-12T01:48:52.996Z,99.90
2018-06-12T01:51:21.216Z,99.90
2018-06-12T01:53:49.424Z,99.90
2018-06-12T01:56:17.584Z,99.90
2018-06-12T01:58:45.961Z,99.90
2018-06-12T02:01:14.140Z,99.90
2018-06-12T02:03:42.357Z,99.90
2018-06-12T02:06:13.160Z,99.90
2018-06-12T02:08:41.481Z,99.90
2018-06-12T02:11:09.640Z,99.90
2018-06-12T02:13:37.914Z,99.90
2018-06-12T02:16:06.084Z,99.90
2018-06-12T02:18:34.240Z,99.90
2018-06-12T02:21:02.417Z,99.90
2018-06-12T02:23:30.575Z,99.90
2018-06-12T02:25:58.911Z,99.90
2018-06-12T02:28:27.115Z,99.90
2018-06-12T02:30:55.292Z,99.90
2018-06-12T02:33:23.556Z,99.90
2018-06-12T02:35:51.729Z,99.90
2018-06-12T02:38:21.227Z,99.90
2018-06-12T02:40:49.464Z,99.90
2018-06-12T02:43:17.680Z,99.90
2018-06-12T02:45:46.469Z,99.90
2018-06-12T02:48:15.049Z,99.90
2018-06-12T02:50:43.232Z,99.90
2018-06-12T02:53:11.404Z,99.90
2018-06-12T02:55:39.720Z,99.90
2018-06-12T02:58:08.052Z,99.90
2018-06-12T03:00:36.258Z,99.90
2018-06-12T03:05:32.407Z,99.90
2018-06-12T03:08:00.590Z,99.90
2018-06-12T03:10:28.842Z,99.90
2018-06-12T03:12:57.040Z,99.90
2018-06-12T03:15:25.321Z,99.90
2018-06-12T03:17:53.813Z,99.90
2018-06-12T03:20:32.226Z,99.90
2018-06-12T03:23:00.405Z,99.90
2018-06-12T03:25:28.584Z,99.90
2018-06-12T03:27:56.971Z,99.90
2018-06-12T03:30:25.161Z,99.90
2018-06-12T03:32:53.330Z,99.90
2018-06-12T03:35:21.616Z,99.90
2018-06-12T03:37:49.798Z,99.90
2018-06-12T03:40:18.133Z,99.90
2018-06-12T03:42:46.300Z,99.90
2018-06-12T03:45:14.475Z,99.90
2018-06-12T03:47:42.649Z,99.90
2018-06-12T03:50:10.996Z,99.90
2018-06-12T03:55:07.128Z,99.90
2018-06-12T03:57:35.350Z,99.90
2018-06-12T04:00:04.139Z,99.90
2018-06-12T04:02:32.392Z,99.90
2018-06-12T04:05:00.552Z,99.90
2018-06-12T04:07:28.741Z,99.90
2018-06-12T04:09:57.015Z,99.90
2018-06-12T04:12:25.191Z,99.90
2018-06-12T04:14:53.482Z,99.90
2018-06-12T04:17:21.624Z,99.90
2018-06-12T04:19:49.799Z,99.90
2018-06-12T04:22:20.156Z,99.90
2018-06-12T04:24:50.113Z,99.90
2018-06-12T04:27:18.428Z,99.90
2018-06-12T04:29:48.624Z,99.90
2018-06-12T04:32:18.932Z,99.90
2018-06-12T04:34:47.172Z,99.90
2018-06-12T04:37:15.433Z,99.90
2018-06-12T04:39:43.789Z,99.90
2018-06-12T04:42:11.987Z,99.90
2018-06-12T04:44:40.308Z,99.90
2018-06-12T04:47:08.715Z,99.90
2018-06-12T04:49:36.932Z,99.90
2018-06-12T04:52:05.164Z,99.90
2018-06-12T04:54:33.366Z,99.90
2018-06-12T04:57:01.522Z,99.90
2018-06-12T04:59:31.140Z,99.90
2018-06-12T05:02:00.044Z,99.90
2018-06-12T05:04:28.286Z,99.90
2018-06-12T05:06:56.615Z,99.90
2018-06-12T05:09:25.701Z,99.90
2018-06-12T05:11:54.499Z,99.90
2018-06-12T05:14:22.714Z,99.90
2018-06-12T05:16:50.880Z,99.90
2018-06-12T05:19:19.057Z,99.90
2018-06-12T05:24:15.280Z,99.90
2018-06-12T05:26:45.209Z,99.90
2018-06-12T05:29:13.444Z,99.90
2018-06-12T05:31:41.616Z,99.90
2018-06-12T05:34:09.791Z,99.90
2018-06-12T05:36:38.056Z,99.90
2018-06-12T05:39:10.359Z,99.90
2018-06-12T05:41:39.732Z,99.90
2018-06-12T05:44:08.499Z,99.90
2018-06-12T05:46:37.052Z,99.90
2018-06-12T05:49:05.578Z,99.90
2018-06-12T05:51:33.945Z,99.90
2018-06-12T05:54:02.107Z,99.90
2018-06-12T05:56:30.329Z,99.90
2018-06-12T05:58:58.609Z,99.90
2018-06-12T06:01:26.779Z,99.90
2018-06-12T06:03:54.935Z,99.90
2018-06-12T06:06:23.196Z,99.90
2018-06-12T06:08:51.375Z,99.90
2018-06-12T06:11:19.537Z,99.90
2018-06-12T06:13:47.687Z,99.90
2018-06-12T06:16:15.918Z,99.90
2018-06-12T06:18:44.141Z,99.90
2018-06-12T06:21:12.332Z,99.90
2018-06-12T06:23:40.560Z,99.90
2018-06-12T06:26:08.732Z,99.90
2018-06-12T06:28:37.004Z,99.90
2018-06-12T06:31:05.540Z,99.90
2018-06-12T06:33:33.704Z,99.90
2018-06-12T06:36:01.985Z,99.90
2018-06-12T06:38:30.217Z,99.90
2018-06-12T06:40:58.363Z,99.90
2018-06-12T06:43:26.667Z,99.90
2018-06-12T06:45:54.887Z,99.90
2018-06-12T06:48:23.125Z,99.90
2018-06-12T06:50:51.315Z,99.90
2018-06-12T06:53:19.596Z,99.90
2018-06-12T06:55:47.987Z,99.90
2018-06-12T06:58:16.755Z,99.90
2018-06-12T07:00:45.021Z,99.90
2018-06-12T07:03:13.247Z,99.90
2018-06-12T07:05:41.736Z,99.90
2018-06-12T07:08:10.442Z,99.90
2018-06-12T07:10:39.319Z,99.90
2018-06-12T07:13:07.488Z,99.90
2018-06-12T07:15:35.973Z,99.90
2018-06-12T07:18:04.208Z,99.90
2018-06-12T07:20:43.779Z,99.90
2018-06-12T07:23:11.936Z,99.90
2018-06-12T07:25:40.086Z,99.90
2018-06-12T07:28:08.337Z,99.90
2018-06-12T07:30:36.749Z,99.90
2018-06-12T07:33:05.136Z,99.90
2018-06-12T07:35:33.788Z,99.90
2018-06-12T07:38:01.947Z,99.90
2018-06-12T07:40:30.108Z,99.90
2018-06-12T07:42:58.276Z,99.90
2018-06-12T07:45:26.532Z,99.90
2018-06-12T07:47:54.709Z,99.90
2018-06-12T07:50:22.853Z,99.90
2018-06-12T07:52:51.036Z,99.90
2018-06-12T07:55:19.813Z,99.90
2018-06-12T07:57:47.977Z,99.90
2018-06-12T08:00:16.128Z,99.90
2018-06-12T08:02:45.309Z,99.90
2018-06-12T08:05:18.188Z,99.90
2018-06-12T08:07:47.306Z,99.90
2018-06-12T08:10:15.441Z,99.90
2018-06-12T08:12:43.604Z,99.90
2018-06-12T08:15:11.764Z,99.90
2018-06-12T08:17:39.998Z,99.90
2018-06-12T08:20:08.139Z,99.90
2018-06-12T08:22:36.521Z,99.90
2018-06-12T08:25:04.764Z,99.90
2018-06-12T08:27:32.940Z,99.90
2018-06-12T08:30:01.171Z,99.90
2018-06-12T08:32:29.389Z,99.90
2018-06-12T08:34:57.567Z,99.50
2018-06-12T08:37:25.869Z,99.60
2018-06-12T08:39:54.080Z,99.50
2018-06-12T08:42:23.350Z,99.20
2018-06-12T08:44:52.419Z,98.70
2018-06-12T08:47:21.935Z,98.60
2018-06-12T08:49:50.547Z,98.60
2018-06-12T08:52:20.816Z,98.10
2018-06-12T08:54:49.083Z,98.20
2018-06-12T08:57:17.961Z,98.10
2018-06-12T08:59:46.991Z,98.10
2018-06-12T09:02:16.117Z,98.10
2018-06-12T09:04:45.160Z,98.40
2018-06-12T09:07:13.318Z,98.00
2018-06-12T09:09:42.580Z,97.80
2018-06-12T09:12:11.701Z,97.70
2018-06-12T09:14:40.991Z,97.90
2018-06-12T09:17:10.094Z,97.80
2018-06-12T09:19:39.188Z,97.50
2018-06-12T09:22:08.396Z,97.80
2018-06-12T09:24:36.857Z,97.50
2018-06-12T09:27:05.172Z,97.50
2018-06-12T09:29:34.113Z,97.50
2018-06-12T09:32:03.167Z,97.30
2018-06-12T09:34:32.376Z,97.00
2018-06-12T09:37:00.848Z,97.20
2018-06-12T09:39:30.060Z,97.10
2018-06-12T09:41:58.305Z,97.40
2018-06-12T09:44:26.577Z,97.70
2018-06-12T09:46:54.725Z,97.20
2018-06-12T09:49:22.906Z,96.60
2018-06-12T09:51:51.064Z,96.70
2018-06-12T09:54:19.225Z,96.40
2018-06-12T09:56:47.392Z,96.70
2018-06-12T09:59:15.548Z,96.90
2018-06-12T10:01:43.788Z,96.60
2018-06-12T10:04:12.016Z,96.50
2018-06-12T10:06:40.223Z,96.10
2018-06-12T10:09:08.402Z,96.10
2018-06-12T10:11:36.556Z,96.20
2018-06-12T10:14:04.708Z,95.80
2018-06-12T10:16:32.860Z,96.20
2018-06-12T10:19:01.039Z,96.00
2018-06-12T10:21:29.191Z,95.90
2018-06-12T10:23:57.404Z,96.20
2018-06-12T10:26:25.691Z,96.70
2018-06-12T10:28:53.861Z,96.50
2018-06-12T10:31:22.026Z,96.50
2018-06-12T10:33:50.196Z,96.70
2018-06-12T10:36:18.373Z,97.00
2018-06-12T10:38:46.686Z,97.10
2018-06-12T10:41:14.931Z,97.20
2018-06-12T10:43:43.144Z,97.80
2018-06-12T10:46:11.240Z,97.80
2018-06-12T10:48:39.408Z,98.30
2018-06-12T10:51:14.141Z,98.40
2018-06-12T10:53:42.312Z,98.30
2018-06-12T10:56:10.472Z,98.30
2018-06-12T10:58:38.625Z,98.90
2018-06-12T11:01:06.792Z,99.00
2018-06-12T11:03:34.985Z,99.50
2018-06-12T11:06:03.151Z,99.60
2018-06-12T11:08:31.312Z,99.90
2018-06-12T11:10:59.464Z,99.90
2018-06-12T11:13:27.612Z,99.90
2018-06-12T11:15:55.926Z,99.90
2018-06-12T11:18:24.079Z,99.90
2018-06-12T11:20:52.252Z,99.90
2018-06-12T11:23:20.430Z,99.90
2018-06-12T11:25:48.584Z,99.90
2018-06-12T11:28:16.945Z,99.90
2018-06-12T11:30:45.113Z,99.90
2018-06-12T11:33:13.452Z,99.90
2018-06-12T11:35:41.669Z,99.90
2018-06-12T11:38:09.873Z,99.90
2018-06-12T11:40:38.021Z,99.90
2018-06-12T11:43:06.208Z,99.90
2018-06-12T11:45:34.364Z,99.90
2018-06-12T11:48:02.609Z,99.90
2018-06-12T11:50:30.773Z,99.90
2018-06-12T11:52:59.488Z,99.90
2018-06-12T11:55:27.649Z,99.90
2018-06-12T11:57:55.851Z,99.90
2018-06-12T12:00:27.423Z,99.90
2018-06-12T12:02:55.646Z,99.90
2018-06-12T12:05:24.169Z,99.90
2018-06-12T12:07:52.323Z,99.90
2018-06-12T12:10:23.124Z,99.90
2018-06-12T12:12:51.438Z,99.90
2018-06-12T12:15:19.608Z,99.90
2018-06-12T12:17:47.852Z,99.90
2018-06-12T12:20:16.143Z,99.90
2018-06-12T12:22:44.298Z,99.90
2018-06-12T12:25:12.469Z,99.90
2018-06-12T12:27:40.621Z,99.90
2018-06-12T12:30:08.836Z,99.90
2018-06-12T12:32:37.053Z,99.90
2018-06-12T12:35:05.260Z,99.90
2018-06-12T12:37:33.439Z,99.90
2018-06-12T12:40:01.710Z,99.90
2018-06-12T12:42:29.871Z,99.90
2018-06-12T12:44:58.040Z,99.90
2018-06-12T12:47:26.205Z,99.90
2018-06-12T12:49:54.369Z,99.90
2018-06-12T12:52:22.530Z,99.90
2018-06-12T12:54:50.706Z,99.90
2018-06-12T12:57:18.865Z,99.90
2018-06-12T12:59:47.009Z,99.90
2018-06-12T13:02:15.292Z,99.90
2018-06-12T13:04:43.444Z,99.90
2018-06-12T13:07:11.679Z,99.90
2018-06-12T13:09:39.839Z,99.90
2018-06-12T13:12:08.276Z,99.90
2018-06-12T13:14:36.465Z,99.90
2018-06-12T13:17:04.653Z,99.90
2018-06-12T13:19:33.649Z,99.90
2018-06-12T13:22:01.950Z,99.90
2018-06-12T13:24:30.477Z,99.90
2018-06-12T13:26:58.684Z,99.90
2018-06-12T13:29:27.409Z,99.90
2018-06-12T13:31:56.087Z,99.90
2018-06-12T13:34:24.424Z,99.90
2018-06-12T13:36:52.993Z,99.90
2018-06-12T13:39:21.484Z,99.90
2018-06-12T13:41:49.781Z,99.90
2018-06-12T13:44:18.095Z,99.90
2018-06-12T13:46:46.913Z,99.90
2018-06-12T13:49:15.529Z,99.90
2018-06-12T13:51:44.575Z,99.90
2018-06-12T13:54:13.505Z,99.90
2018-06-12T13:56:41.795Z,99.90
2018-06-12T13:59:09.970Z,99.90
2018-06-12T14:01:38.139Z,99.90
2018-06-12T14:04:06.308Z,99.90
2018-06-12T14:06:34.796Z,99.90
2018-06-12T14:09:03.125Z,99.90
2018-06-12T14:11:32.468Z,99.90
2018-06-12T14:14:01.534Z,99.90
2018-06-12T14:16:29.710Z,99.90
2018-06-12T14:18:57.949Z,99.90
2018-06-12T14:21:26.113Z,99.90
2018-06-12T14:23:54.340Z,99.90
2018-06-12T14:26:23.554Z,99.90
2018-06-12T14:28:53.693Z,99.90
2018-06-12T14:31:22.683Z,99.90
2018-06-12T14:33:51.098Z,99.90
2018-06-12T14:36:19.273Z,99.90
2018-06-12T14:38:48.156Z,99.90
2018-06-12T14:41:16.742Z,99.90
2018-06-12T14:43:45.574Z,99.90
2018-06-12T14:46:14.024Z,99.90
2018-06-12T14:48:43.318Z,99.90
2018-06-12T14:51:11.904Z,99.90
2018-06-12T14:53:41.279Z,99.90
2018-06-12T14:56:10.184Z,99.90
2018-06-12T14:58:38.739Z,99.90
2018-06-12T15:01:07.077Z,99.90
2018-06-12T15:03:35.540Z,99.90
2018-06-12T15:06:04.634Z,99.90
2018-06-12T15:08:32.866Z,99.90
2018-06-12T15:11:02.534Z,99.90
2018-06-12T15:13:31.868Z,99.90
2018-06-12T15:16:01.411Z,99.90
2018-06-12T15:18:31.254Z,99.90
2018-06-12T15:21:00.301Z,99.90
2018-06-12T15:23:28.789Z,99.90
2018-06-12T15:25:58.097Z,99.90
2018-06-12T15:28:27.279Z,99.90
2018-06-12T15:30:56.372Z,99.90
2018-06-12T15:33:25.792Z,99.90
2018-06-12T15:35:54.820Z,99.90
2018-06-12T15:38:24.689Z,99.90
2018-06-12T15:40:53.344Z,99.90
2018-06-12T15:43:23.404Z,99.90
2018-06-12T15:45:53.084Z,99.90
2018-06-12T15:48:22.048Z,99.90
2018-06-12T15:50:50.208Z,99.90
2018-06-12T15:53:18.369Z,99.90
2018-06-12T15:55:46.524Z,99.60
2018-06-12T15:58:14.877Z,99.90
2018-06-12T16:00:46.359Z,99.90
2018-06-12T16:03:14.519Z,99.40
2018-06-12T16:05:42.857Z,98.90
2018-06-12T16:08:11.040Z,98.90
2018-06-12T16:10:39.229Z,99.10
2018-06-12T16:13:07.421Z,98.90
2018-06-12T16:15:35.652Z,97.80
2018-06-12T16:18:04.955Z,98.10
2018-06-12T16:20:33.139Z,98.00
2018-06-12T16:23:01.317Z,98.00
2018-06-12T16:25:29.493Z,97.90
2018-06-12T16:27:57.662Z,98.40
2018-06-12T16:30:25.837Z,98.20
2018-06-12T16:32:53.995Z,97.50
2018-06-12T16:35:22.153Z,97.50
2018-06-12T16:37:50.319Z,97.20
2018-06-12T16:40:18.465Z,97.50
2018-06-12T16:42:46.625Z,97.40
2018-06-12T16:45:15.053Z,97.70
2018-06-12T16:47:43.259Z,97.40
2018-06-12T16:50:11.449Z,97.60
2018-06-12T16:52:39.623Z,97.30
2018-06-12T16:55:08.198Z,97.10
2018-06-12T16:57:36.505Z,96.80
2018-06-12T17:00:04.896Z,97.10
2018-06-12T17:02:33.080Z,97.60
2018-06-12T17:05:01.313Z,97.30
2018-06-12T17:07:29.500Z,97.00
2018-06-12T17:09:57.668Z,97.00
2018-06-12T17:12:25.845Z,97.70
2018-06-12T17:14:54.003Z,97.40
2018-06-12T17:17:22.159Z,96.50
2018-06-12T17:19:50.369Z,95.60
2018-06-12T17:22:18.542Z,95.90
2018-06-12T17:24:46.705Z,95.30
2018-06-12T17:27:14.867Z,94.60
2018-06-12T17:29:43.190Z,94.90
2018-06-12T17:32:11.363Z,94.70
2018-06-12T17:34:39.535Z,95.00
2018-06-12T17:37:07.706Z,95.40
2018-06-12T17:39:35.873Z,95.90
2018-06-12T17:42:05.030Z,95.80
2018-06-12T17:44:33.281Z,95.90
2018-06-12T17:47:01.443Z,96.10
2018-06-12T17:49:29.698Z,95.90
2018-06-12T17:51:58.347Z,96.70
2018-06-12T17:54:26.596Z,96.60
2018-06-12T17:56:54.745Z,96.50
2018-06-12T17:59:22.907Z,97.50
2018-06-12T18:01:51.057Z,97.10
2018-06-12T18:04:19.226Z,97.70
2018-06-12T18:06:47.520Z,98.00
2018-06-12T18:09:15.691Z,97.70
2018-06-12T18:11:43.851Z,98.20
2018-06-12T18:14:12.061Z,97.90
2018-06-12T18:16:40.276Z,98.30
2018-06-12T18:19:08.505Z,98.90
2018-06-12T18:21:36.677Z,98.90
2018-06-12T18:24:04.992Z,98.70
2018-06-12T18:26:33.220Z,98.60
2018-06-12T18:29:01.452Z,98.60
2018-06-12T18:31:29.863Z,98.30
2018-06-12T18:33:58.037Z,98.30
2018-06-12T18:36:26.196Z,98.30
2018-06-12T18:38:54.392Z,99.00
2018-06-12T18:41:22.600Z,99.40
2018-06-12T18:43:50.795Z,99.60
2018-06-12T18:46:19.173Z,99.70
2018-06-12T18:48:47.350Z,99.60
2018-06-12T18:51:15.559Z,99.90
2018-06-12T18:53:43.711Z,99.90
2018-06-12T18:56:12.049Z,99.90
2018-06-12T18:58:40.252Z,99.90
2018-06-12T19:01:08.407Z,99.90
2018-06-12T19:03:36.625Z,99.90
2018-06-12T19:06:05.130Z,99.90
2018-06-12T19:08:34.843Z,99.90
2018-06-12T19:11:03.163Z,99.90
2018-06-12T19:13:31.589Z,99.90
2018-06-12T19:15:59.920Z,99.90
2018-06-12T19:18:28.102Z,99.90
2018-06-12T19:20:56.274Z,99.90
2018-06-12T19:23:24.557Z,99.90
2018-06-12T19:25:52.732Z,99.90
2018-06-12T19:30:48.933Z,99.90
2018-06-12T19:33:17.101Z,99.90
2018-06-12T19:35:45.345Z,99.90
2018-06-12T19:38:13.588Z,99.90
2018-06-12T19:40:41.840Z,99.90
2018-06-12T19:43:10.073Z,99.90
2018-06-12T19:45:38.278Z,99.90
2018-06-12T19:48:06.435Z,99.90
2018-06-12T19:50:34.698Z,99.90
2018-06-12T19:53:02.889Z,99.90
2018-06-12T19:55:31.179Z,99.90
2018-06-12T19:58:00.404Z,99.90
2018-06-12T20:00:28.604Z,99.90
2018-06-12T20:02:56.791Z,99.90
2018-06-12T20:05:25.237Z,99.90
2018-06-12T20:07:53.503Z,99.90
2018-06-12T20:10:21.692Z,99.90
2018-06-12T20:12:49.852Z,99.70
2018-06-12T20:15:18.187Z,99.60
2018-06-12T20:17:46.384Z,99.50
2018-06-12T20:20:14.544Z,99.00
2018-06-12T20:22:43.093Z,99.20
2018-06-12T20:25:11.265Z,99.40
2018-06-12T20:27:39.430Z,99.60
2018-06-12T20:30:07.853Z,99.70
2018-06-12T20:32:36.096Z,99.90
2018-06-12T20:35:04.683Z,99.90
2018-06-12T20:37:32.870Z,99.90
2018-06-12T20:40:01.113Z,99.90
2018-06-12T20:42:29.264Z,99.90
2018-06-12T20:44:57.438Z,99.90
2018-06-12T20:47:25.593Z,99.90
2018-06-12T20:49:53.777Z,99.90
2018-06-12T20:52:22.084Z,99.90
2018-06-12T20:54:50.284Z,99.90
2018-06-12T20:57:18.452Z,99.90
2018-06-12T20:59:46.616Z,99.90
2018-06-12T21:02:14.933Z,99.90
2018-06-12T21:04:43.112Z,99.90
2018-06-12T21:07:11.371Z,99.90
2018-06-12T21:09:39.585Z,99.90
2018-06-12T21:12:08.063Z,99.90
2018-06-12T21:14:36.265Z,99.90
2018-06-12T21:17:04.424Z,99.90
2018-06-12T21:19:33.991Z,99.90
2018-06-12T21:22:02.182Z,99.90
2018-06-12T21:24:30.364Z,99.90
2018-06-12T21:26:58.587Z,99.90
2018-06-12T21:29:26.860Z,99.90
2018-06-12T21:31:55.062Z,99.90
2018-06-12T21:34:23.232Z,99.90
2018-06-12T21:36:51.393Z,99.90
2018-06-12T21:39:19.675Z,99.90
2018-06-12T21:41:47.894Z,99.90
2018-06-12T21:44:20.299Z,99.90
2018-06-12T21:46:48.470Z,99.90
2018-06-12T21:49:16.711Z,99.90
2018-06-12T21:51:44.915Z,99.90
2018-06-12T21:54:13.079Z,99.90
2018-06-12T21:56:41.449Z,99.90
2018-06-12T21:59:09.660Z,99.90
2018-06-12T22:01:37.914Z,99.90
2018-06-12T22:04:06.072Z,99.90
2018-06-12T22:06:34.284Z,99.90
2018-06-12T22:09:02.464Z,99.90
2018-06-12T22:11:30.644Z,99.90
2018-06-12T22:13:59.876Z,99.90
2018-06-12T22:16:28.166Z,99.90
2018-06-12T22:18:56.336Z,99.90
2018-06-12T22:21:55.377Z,99.90
2018-06-12T22:24:26.104Z,99.90
2018-06-12T22:29:22.283Z,99.90
2018-06-12T22:31:50.433Z,99.90
2018-06-12T22:34:18.596Z,99.90
2018-06-12T22:36:46.782Z,99.90
2018-06-12T22:39:14.984Z,99.90
2018-06-12T22:41:43.196Z,99.90
2018-06-12T22:44:11.341Z,99.90
2018-06-12T22:46:39.496Z,99.90
2018-06-12T22:49:07.761Z,99.90
2018-06-12T22:51:35.996Z,99.90
2018-06-12T22:54:04.228Z,99.90
2018-06-12T22:56:32.387Z,99.90
2018-06-12T22:59:00.540Z,99.90
2018-06-12T23:01:28.720Z,99.90
2018-06-12T23:03:56.884Z,99.90
2018-06-12T23:06:25.144Z,99.90
2018-06-12T23:08:53.332Z,99.90
2018-06-12T23:11:21.492Z,99.90
2018-06-12T23:13:49.668Z,99.90
2018-06-12T23:16:17.818Z,99.90
2018-06-12T23:18:46.009Z,99.90
2018-06-12T23:22:23.377Z,99.90
2018-06-12T23:24:51.524Z,99.90
2018-06-12T23:27:19.692Z,99.90
2018-06-12T23:29:47.860Z,99.90
2018-06-12T23:32:16.096Z,99.90
2018-06-12T23:34:44.308Z,99.90
2018-06-12T23:37:12.483Z,99.90
2018-06-12T23:39:40.677Z,99.90
2018-06-12T23:42:08.828Z,99.90
2018-06-12T23:44:37.049Z,99.90
2018-06-12T23:47:05.321Z,99.90
2018-06-12T23:49:33.468Z,99.90
2018-06-12T23:52:01.627Z,99.90
2018-06-12T23:54:29.778Z,99.90
2018-06-12T23:56:58.031Z,99.90
2018-06-12T23:59:26.181Z,99.90
